Euskara    
Meteorología y climatología de Navarra
Datos de la estación - Meteo Navarra

Estación de Estella GN

Altitud 486 m.


Datos desde el 08/04/2021 hasta el 09/04/2021 en horario solar
Los datos son PROVISIONALES

Anterior Página 1 de 1 Siguiente Descargar: Formato para Excel 2000 o superior   Formato csv   Formato para OpenOffice Calc
Fecha Temperatura Humedad relativa Radiación global Insolación Precipitación Vel. viento 10 m Vel. viento 10 m Dir. viento 10 m
°C % W/m² s l/m² m/s km/h °
08/04/2021 0:00 1.3 69 0.0 0 0.0 0.4 1.5 256
08/04/2021 0:10 1.1 70 0.0 0 0.0 0.4 1.3 313
08/04/2021 0:20 1.4 68 0.0 0 0.0 0.1 0.4 120
08/04/2021 0:30 1.9 67 0.0 0 0.0 0.5 1.7 68
08/04/2021 0:40 4.1 59 0.0 0 0.0 1.0 3.6 58
08/04/2021 0:50 4.7 58 0.0 0 0.0 1.0 3.6 63
08/04/2021 1:00 5.1 57 0.0 0 0.0 1.3 4.6 57
08/04/2021 1:10 4.8 60 0.0 0 0.0 1.0 3.7 57
08/04/2021 1:20 4.1 64 0.0 0 0.0 0.7 2.6 41
08/04/2021 1:30 4.3 65 0.0 0 0.0 0.9 3.1 38
08/04/2021 1:40 4.5 67 0.0 0 0.0 1.0 3.5 37
08/04/2021 1:50 4.1 70 0.0 0 0.0 1.1 4.0 42
08/04/2021 2:00 4.4 71 0.0 0 0.0 1.1 3.9 41
08/04/2021 2:10 3.6 74 0.0 0 0.0 1.0 3.7 60
08/04/2021 2:20 3.5 76 0.0 0 0.0 0.9 3.4 69
08/04/2021 2:30 3.4 77 0.0 0 0.0 0.5 1.7 70
08/04/2021 2:40 3.5 79 0.0 0 0.0 0.8 2.9 51
08/04/2021 2:50 3.6 79 0.0 0 0.0 0.6 2.2 70
08/04/2021 3:00 4.0 79 0.0 0 0.0 0.9 3.4 56
08/04/2021 3:10 3.7 80 0.0 0 0.0 1.1 4.0 62
08/04/2021 3:20 4.0 81 0.0 0 0.0 1.2 4.2 56
08/04/2021 3:30 4.4 81 0.0 0 0.0 0.9 3.2 78
08/04/2021 3:40 4.4 80 0.0 0 0.0 1.0 3.6 68
08/04/2021 3:50 4.5 81 0.0 0 0.0 1.1 3.9 104
08/04/2021 4:00 4.5 80 0.0 0 0.0 0.7 2.4 81
08/04/2021 4:10 4.7 81 0.0 0 0.0 1.1 4.1 66
08/04/2021 4:20 4.8 82 0.0 0 0.0 1.3 4.6 81
08/04/2021 4:30 4.8 83 0.0 0 0.0 1.8 6.4 76
08/04/2021 4:40 4.7 84 0.0 0 0.0 1.6 5.7 77
08/04/2021 4:50 4.7 85 0.0 0 0.0 1.5 5.5 84
08/04/2021 5:00 4.7 85 0.0 0 0.0 1.7 6.2 84
08/04/2021 5:10 4.6 86 0.0 0 0.0 1.4 4.9 82
08/04/2021 5:20 4.6 86 0.0 0 0.0 1.6 5.8 89
08/04/2021 5:30 4.7 87 0.0 0 0.0 1.2 4.2 97
08/04/2021 5:40 4.7 86 0.0 0 0.0 1.0 3.6 85
08/04/2021 5:50 4.9 85 0.0 0 0.0 1.6 5.8 65
08/04/2021 6:00 5.0 85 0.0 0 0.0 1.3 4.5 71
08/04/2021 6:10 5.1 84 9.7 0 0.0 1.3 4.7 102
08/04/2021 6:20 5.0 85 18.2 0 0.0 1.8 6.4 78
08/04/2021 6:30 5.1 85 23.8 0 0.0 1.4 4.9 97
08/04/2021 6:40 5.2 84 25.6 0 0.0 1.0 3.6 59
08/04/2021 6:50 5.3 84 21.9 0 0.0 1.4 4.9 89
08/04/2021 7:00 5.3 83 40.0 0 0.0 1.0 3.5 96
08/04/2021 7:10 5.4 83 53.5 0 0.0 1.3 4.6 104
08/04/2021 7:20 5.5 83 57.5 0 0.0 1.3 4.6 95
08/04/2021 7:30 5.6 82 63.5 0 0.0 1.1 3.8 112
08/04/2021 7:40 5.8 81 70.7 0 0.0 0.9 3.4 80
08/04/2021 7:50 5.9 81 81.1 0 0.0 1.4 4.9 101
08/04/2021 8:00 6.0 80 76.5 0 0.0 1.3 4.8 117
08/04/2021 8:10 6.1 80 92.1 0 0.0 1.6 5.7 80
08/04/2021 8:20 6.4 79 106.2 0 0.0 1.4 5.1 110
08/04/2021 8:30 6.4 78 130.5 0 0.0 1.2 4.5 109
08/04/2021 8:40 6.7 78 141.3 0 0.0 1.4 5.1 99
08/04/2021 8:50 6.9 77 152.6 0 0.0 1.2 4.2 110
08/04/2021 9:00 7.1 76 177.8 0 0.0 1.6 5.9 96
08/04/2021 9:10 7.3 76 202.4 0 0.0 1.6 5.7 112
08/04/2021 9:20 7.6 75 158.8 0 0.0 1.5 5.5 104
08/04/2021 9:30 7.8 75 200.2 0 0.0 0.9 3.2 92
08/04/2021 9:40 8.4 72 203.2 0 0.0 1.2 4.5 116
08/04/2021 9:50 8.6 71 240.5 0 0.0 1.2 4.2 189
08/04/2021 10:00 9.1 70 281.6 0 0.0 1.4 4.9 173
08/04/2021 10:10 9.2 69 270.5 0 0.0 1.2 4.1 136
08/04/2021 10:20 9.5 69 267.6 0 0.0 1.8 6.3 111
08/04/2021 10:30 9.5 68 206.5 0 0.0 0.8 2.9 194
08/04/2021 10:40 9.9 67 274.5 0 0.0 0.9 3.4 144
08/04/2021 10:50 10.3 66 286.4 0 0.0 1.1 4.1 131
08/04/2021 11:00 10.6 65 262.9 0 0.0 1.2 4.2 125
08/04/2021 11:10 10.6 64 279.8 0 0.0 1.1 4.0 157
08/04/2021 11:20 11.1 63 315.7 0 0.0 1.0 3.6 114
08/04/2021 11:30 11.5 62 338.6 0 0.0 1.3 4.8 140
08/04/2021 11:40 11.9 60 470.3 484 0.0 1.8 6.3 125
08/04/2021 11:50 12.3 59 457.1 324 0.0 1.5 5.5 136
08/04/2021 12:00 12.8 57 669.0 476 0.0 1.3 4.7 154
08/04/2021 12:10 13.1 57 500.6 452 0.0 1.7 5.9 145
08/04/2021 12:20 13.4 56 560.6 442 0.0 1.7 6.3 149
08/04/2021 12:30 13.8 55 610.4 374 0.0 1.6 5.6 165
08/04/2021 12:40 14.1 54 773.8 556 0.0 1.9 7.0 150
08/04/2021 12:50 14.0 54 660.4 520 0.0 2.0 7.2 153
08/04/2021 13:00 14.4 53 756.5 600 0.0 1.8 6.4 128
08/04/2021 13:10 14.5 53 804.0 600 0.0 1.9 6.7 140
08/04/2021 13:20 14.7 52 450.5 232 0.0 1.6 5.6 128
08/04/2021 13:30 14.3 53 525.7 442 0.0 1.3 4.8 153
08/04/2021 13:40 14.9 52 695.1 600 0.0 1.9 6.7 173
08/04/2021 13:50 15.4 50 862.0 600 0.0 2.1 7.7 135
08/04/2021 14:00 15.5 49 526.8 502 0.0 1.7 6.3 133
08/04/2021 14:10 14.8 51 395.1 286 0.0 1.8 6.6 174
08/04/2021 14:20 15.3 51 735.7 600 0.0 1.6 5.8 108
08/04/2021 14:30 16.0 49 781.7 600 0.0 2.1 7.6 128
08/04/2021 14:40 16.0 48 757.9 600 0.0 1.5 5.2 153
08/04/2021 14:50 16.5 48 704.1 600 0.0 1.7 6.0 178
08/04/2021 15:00 16.2 47 606.8 600 0.0 2.0 7.1 137
08/04/2021 15:10 16.1 48 539.0 600 0.0 1.0 3.7 111
08/04/2021 15:20 16.4 48 603.0 600 0.0 2.0 7.0 171
08/04/2021 15:30 16.7 47 566.8 600 0.0 1.4 5.1 123
08/04/2021 15:40 16.8 47 537.1 600 0.0 1.9 6.9 127
08/04/2021 15:50 16.8 47 502.5 600 0.0 1.6 5.7 170
08/04/2021 16:00 16.8 47 475.2 600 0.0 2.4 8.6 195
08/04/2021 16:10 16.5 47 448.3 600 0.0 1.6 5.7 176
08/04/2021 16:20 16.7 47 272.6 310 0.0 1.3 4.8 152
08/04/2021 16:30 16.0 49 148.7 32 0.0 1.1 4.0 86
08/04/2021 16:40 15.7 51 120.9 0 0.0 1.3 4.5 160
08/04/2021 16:50 15.8 51 227.0 450 0.0 0.8 2.9 69
08/04/2021 17:00 16.4 49 249.5 512 0.0 1.2 4.2 105
08/04/2021 17:10 16.1 49 128.5 134 0.0 1.0 3.6 111
08/04/2021 17:20 16.0 51 166.2 592 0.0 0.8 3.0 86
08/04/2021 17:30 16.6 49 138.2 396 0.0 0.4 1.4 88
08/04/2021 17:40 16.0 50 92.0 34 0.0 0.9 3.3 81
08/04/2021 17:50 15.7 51 83.1 178 0.0 0.4 1.6 88
08/04/2021 18:00 15.6 52 39.8 0 0.0 0.7 2.4 86
08/04/2021 18:10 15.3 52 10.6 0 0.0 0.5 1.7 86
08/04/2021 18:20 14.9 55 0.0 0 0.0 0.6 2.1 72
08/04/2021 18:30 14.4 57 0.0 0 0.0 0.9 3.2 66
08/04/2021 18:40 13.9 59 0.0 0 0.0 1.0 3.7 75
08/04/2021 18:50 13.9 59 0.0 0 0.0 1.3 4.6 81
08/04/2021 19:00 13.9 59 0.0 0 0.0 0.9 3.2 95
08/04/2021 19:10 14.1 59 0.0 0 0.0 1.1 3.8 94
08/04/2021 19:20 13.9 61 0.0 0 0.0 1.3 4.8 91
08/04/2021 19:30 13.1 67 0.0 0 0.0 1.4 5.1 72
08/04/2021 19:40 12.9 68 0.0 0 0.0 1.6 5.9 85
08/04/2021 19:50 12.9 68 0.0 0 0.0 2.1 7.4 91
08/04/2021 20:00 13.0 66 0.0 0 0.0 0.8 2.8 80
08/04/2021 20:10 12.9 66 0.0 0 0.0 0.3 1.2 130
08/04/2021 20:20 12.5 68 0.0 0 0.0 0.0 0.1 95
08/04/2021 20:30 12.4 68 0.0 0 0.0 0.6 2.1 60
08/04/2021 20:40 12.2 68 0.0 0 0.0 1.0 3.6 70
08/04/2021 20:50 12.1 69 0.0 0 0.0 1.3 4.6 78
08/04/2021 21:00 12.3 67 0.0 0 0.0 1.2 4.2 80
08/04/2021 21:10 12.5 66 0.0 0 0.0 0.9 3.3 77
08/04/2021 21:20 12.3 67 0.0 0 0.0 0.6 2.1 65
08/04/2021 21:30 12.3 66 0.0 0 0.0 1.0 3.4 73
08/04/2021 21:40 12.4 64 0.0 0 0.0 1.4 5.0 66
08/04/2021 21:50 12.3 64 0.0 0 0.0 0.4 1.5 187
08/04/2021 22:00 12.0 65 0.0 0 0.0 0.3 0.9 348
08/04/2021 22:10 11.8 65 0.0 0 0.0 1.5 5.5 65
08/04/2021 22:20 11.8 64 0.0 0 0.0 1.8 6.5 94
08/04/2021 22:30 11.8 64 0.0 0 0.0 1.6 5.6 85
08/04/2021 22:40 11.6 64 0.0 0 0.0 1.5 5.3 67
08/04/2021 22:50 11.4 65 0.0 0 0.0 1.6 5.8 55
08/04/2021 23:00 11.1 67 0.0 0 0.0 1.5 5.3 97
08/04/2021 23:10 11.1 66 0.0 0 0.0 1.7 6.2 100
08/04/2021 23:20 11.2 66 0.0 0 0.0 1.4 5.0 70
08/04/2021 23:30 10.9 67 0.0 0 0.0 1.6 5.7 92
08/04/2021 23:40 10.8 67 0.0 0 0.0 0.9 3.2 113
08/04/2021 23:50 10.6 68 0.0 0 0.0 0.7 2.7 80
Anterior Página 1 de 1 Siguiente

NOTA: Tipo de datos según el color:
   - Valores diarios o 10 minutos correctos
   - Valores diarios calculados a partir de un número de datos 10 minutos menor que 144 y mayor que 120, o de un número de datos semihorarios menor que 48 y mayor que 40 (caso de las estaciones de INTIA Y Ministerio)
   - Valores diez minutos estimados


Contacto        Enlaces        Aviso legal